createdAt,value
2022-11-13T00:01:27.481Z,5.93
2022-11-13T00:03:55.937Z,4.05
2022-11-13T00:06:28.121Z,3.67
2022-11-13T00:08:57.418Z,4.05
2022-11-13T00:11:26.175Z,4.05
2022-11-13T00:13:55.161Z,3.90
2022-11-13T00:16:24.069Z,4.78
2022-11-13T00:18:52.979Z,4.55
2022-11-13T00:21:26.961Z,3.85
2022-11-13T00:23:56.635Z,4.82
2022-11-13T00:26:28.495Z,5.05
2022-11-13T00:28:59.708Z,4.40
2022-11-13T00:31:29.387Z,3.80
2022-11-13T00:36:49.805Z,4.93
2022-11-13T00:39:18.539Z,4.32
2022-11-13T00:41:47.350Z,4.43
2022-11-13T00:44:15.848Z,3.92
2022-11-13T00:46:43.971Z,5.63
2022-11-13T00:49:12.789Z,5.35
2022-11-13T00:51:41.617Z,6.68
2022-11-13T00:54:10.376Z,9.13
2022-11-13T00:56:39.468Z,6.13
2022-11-13T00:59:08.523Z,9.32
2022-11-13T01:01:37.391Z,6.47
2022-11-13T01:04:06.379Z,6.55
2022-11-13T01:06:35.197Z,15.48
2022-11-13T01:09:03.666Z,11.63
2022-11-13T01:11:33.020Z,8.65
2022-11-13T01:14:01.509Z,13.88
2022-11-13T01:16:30.431Z,8.40
2022-11-13T01:18:59.251Z,11.93
2022-11-13T01:21:29.323Z,9.55
2022-11-13T01:23:58.297Z,8.15
2022-11-13T01:26:31.995Z,10.80
2022-11-13T01:29:01.629Z,9.85
2022-11-13T01:31:32.085Z,8.35
2022-11-13T01:34:01.116Z,8.13
2022-11-13T01:36:30.883Z,10.52
2022-11-13T01:39:00.066Z,10.27
2022-11-13T01:41:31.626Z,9.80
2022-11-13T01:44:01.427Z,10.57
2022-11-13T01:46:39.177Z,11.18
2022-11-13T01:49:13.383Z,12.57
2022-11-13T01:51:47.241Z,8.02
2022-11-13T01:54:20.498Z,7.22
2022-11-13T01:56:49.717Z,6.80
2022-11-13T01:59:23.904Z,5.35
2022-11-13T02:01:52.877Z,6.40
2022-11-13T02:04:21.846Z,5.45
2022-11-13T02:06:56.935Z,5.40
2022-11-13T02:09:29.766Z,6.72
2022-11-13T02:11:59.148Z,5.78
2022-11-13T02:14:29.581Z,5.68
2022-11-13T02:17:01.956Z,7.95
2022-11-13T02:19:34.935Z,4.43
2022-11-13T02:22:28.188Z,4.13
2022-11-13T02:24:58.148Z,5.60
2022-11-13T02:27:53.237Z,5.65
2022-11-13T02:30:28.415Z,4.97
2022-11-13T02:32:58.939Z,6.13
2022-11-13T02:35:31.700Z,5.15
2022-11-13T02:38:03.532Z,5.40
2022-11-13T02:40:33.612Z,5.72
2022-11-13T02:43:02.129Z,6.05
2022-11-13T02:45:30.962Z,5.70
2022-11-13T02:48:02.139Z,4.97
2022-11-13T02:50:30.990Z,5.40
2022-11-13T02:52:59.667Z,5.95
2022-11-13T02:55:28.176Z,4.90
2022-11-13T02:57:56.987Z,4.82
2022-11-13T03:00:26.494Z,5.85
2022-11-13T03:02:55.406Z,5.45
2022-11-13T03:05:24.428Z,5.80
2022-11-13T03:07:53.179Z,5.22
2022-11-13T03:10:21.677Z,5.63
2022-11-13T03:12:50.514Z,5.32
2022-11-13T03:15:19.365Z,4.68
2022-11-13T03:17:48.204Z,6.43
2022-11-13T03:20:17.224Z,6.72
2022-11-13T03:22:45.963Z,7.97
2022-11-13T03:25:14.797Z,8.02
2022-11-13T03:27:43.656Z,7.43
2022-11-13T03:30:13.171Z,8.43
2022-11-13T03:32:41.953Z,6.80
2022-11-13T03:35:10.916Z,6.68
2022-11-13T03:37:39.702Z,6.30
2022-11-13T03:40:09.173Z,6.47
2022-11-13T03:42:37.706Z,9.10
2022-11-13T03:45:06.870Z,7.00
2022-11-13T03:47:35.424Z,8.73
2022-11-13T03:50:04.297Z,6.05
2022-11-13T03:52:33.046Z,6.55
2022-11-13T03:55:01.869Z,7.50
2022-11-13T03:57:30.708Z,6.88
2022-11-13T03:59:59.811Z,7.85
2022-11-13T04:02:28.293Z,8.52
2022-11-13T04:04:57.066Z,8.88
2022-11-13T04:07:25.538Z,7.97
2022-11-13T04:09:54.261Z,7.63
2022-11-13T04:12:23.054Z,10.82
2022-11-13T04:14:51.784Z,6.70
2022-11-13T04:17:20.562Z,5.68
2022-11-13T04:19:49.349Z,6.45
2022-11-13T04:22:17.831Z,6.72
2022-11-13T04:24:46.544Z,6.18
2022-11-13T04:27:15.380Z,6.22
2022-11-13T04:29:43.555Z,6.88
2022-11-13T04:32:12.278Z,6.85
2022-11-13T04:34:41.109Z,7.07
2022-11-13T04:37:09.825Z,6.25
2022-11-13T04:39:38.606Z,6.43
2022-11-13T04:42:26.033Z,6.03
2022-11-13T04:44:54.785Z,6.68
2022-11-13T04:47:23.202Z,5.88
2022-11-13T04:49:52.015Z,4.60
2022-11-13T04:52:20.713Z,6.10
2022-11-13T04:54:49.480Z,5.75
2022-11-13T04:57:18.281Z,6.18
2022-11-13T04:59:47.429Z,6.72
2022-11-13T05:02:16.170Z,6.10
2022-11-13T05:04:44.967Z,4.45
2022-11-13T05:07:13.910Z,6.50
2022-11-13T05:09:42.432Z,6.55
2022-11-13T05:12:11.229Z,5.97
2022-11-13T05:14:42.690Z,6.65
2022-11-13T05:17:13.300Z,6.47
2022-11-13T05:19:41.744Z,5.68
2022-11-13T05:22:11.176Z,6.45
2022-11-13T05:24:40.014Z,5.38
2022-11-13T05:27:11.597Z,4.60
2022-11-13T05:29:44.797Z,6.68
2022-11-13T05:32:13.337Z,9.13
2022-11-13T05:34:41.773Z,5.95
2022-11-13T05:37:10.566Z,7.60
2022-11-13T05:39:39.333Z,6.45
2022-11-13T05:42:08.214Z,10.98
2022-11-13T05:44:36.674Z,6.95
2022-11-13T05:47:05.455Z,7.70
2022-11-13T05:49:33.879Z,6.57
2022-11-13T05:52:02.379Z,7.95
2022-11-13T05:54:31.079Z,5.60
2022-11-13T05:57:00.422Z,6.75
2022-11-13T05:59:29.145Z,8.95
2022-11-13T06:01:57.968Z,5.95
2022-11-13T06:04:26.824Z,7.22
2022-11-13T06:06:55.655Z,6.28
2022-11-13T06:09:24.523Z,10.35
2022-11-13T06:11:53.349Z,6.80
2022-11-13T06:14:22.151Z,7.05
2022-11-13T06:16:50.899Z,8.05
2022-11-13T06:19:19.682Z,7.35
2022-11-13T06:21:48.432Z,7.20
2022-11-13T06:24:17.181Z,6.43
2022-11-13T06:26:45.980Z,5.72
2022-11-13T06:29:15.721Z,5.85
2022-11-13T06:31:44.453Z,5.97
2022-11-13T06:34:12.949Z,6.32
2022-11-13T06:36:41.671Z,7.10
2022-11-13T06:39:11.524Z,7.60
2022-11-13T06:41:41.212Z,6.70
2022-11-13T06:44:10.031Z,6.18
2022-11-13T06:46:38.766Z,6.45
2022-11-13T06:49:07.596Z,7.28
2022-11-13T06:51:36.778Z,6.97
2022-11-13T06:54:05.871Z,6.65
2022-11-13T06:56:34.670Z,8.90
2022-11-13T06:59:07.632Z,7.60
2022-11-13T07:01:37.353Z,6.43
2022-11-13T07:04:07.789Z,6.13
2022-11-13T07:06:40.341Z,7.53
2022-11-13T07:09:09.800Z,6.40
2022-11-13T07:11:38.611Z,6.13
2022-11-13T07:14:07.071Z,6.47
2022-11-13T07:17:04.421Z,6.43
2022-11-13T07:19:24.297Z,6.10
2022-11-13T07:21:52.828Z,6.40
2022-11-13T07:24:21.622Z,7.57
2022-11-13T07:26:50.605Z,5.93
2022-11-13T07:29:19.452Z,8.13
2022-11-13T07:31:48.160Z,6.13
2022-11-13T07:34:16.938Z,5.40
2022-11-13T07:36:45.446Z,8.02
2022-11-13T07:39:14.200Z,6.13
2022-11-13T07:41:42.375Z,9.05
2022-11-13T07:44:11.216Z,6.00
2022-11-13T07:46:44.203Z,6.20
2022-11-13T07:49:12.934Z,6.60
2022-11-13T07:51:41.351Z,7.45
2022-11-13T07:54:10.223Z,7.57
2022-11-13T07:56:39.181Z,7.15
2022-11-13T07:59:07.942Z,7.65
2022-11-13T08:01:36.386Z,6.57
2022-11-13T08:04:05.158Z,6.32
2022-11-13T08:06:33.850Z,8.70
2022-11-13T08:09:02.317Z,8.50
2022-11-13T08:11:31.134Z,7.30
2022-11-13T08:13:59.935Z,11.13
2022-11-13T08:16:29.354Z,8.05
2022-11-13T08:18:58.069Z,8.82
2022-11-13T08:21:26.848Z,9.23
2022-11-13T08:23:55.563Z,8.52
2022-11-13T08:26:24.487Z,9.95
2022-11-13T08:28:53.216Z,9.05
2022-11-13T08:31:21.936Z,8.90
2022-11-13T08:33:50.773Z,8.20
2022-11-13T08:36:19.516Z,7.07
2022-11-13T08:38:49.977Z,10.45
2022-11-13T08:41:18.756Z,7.43
2022-11-13T08:43:47.177Z,11.35
2022-11-13T08:46:15.941Z,8.63
2022-11-13T08:48:44.732Z,8.57
2022-11-13T08:51:13.451Z,7.57
2022-11-13T08:53:42.146Z,9.40
2022-11-13T08:56:11.050Z,8.07
2022-11-13T08:58:40.358Z,7.25
2022-11-13T09:01:08.809Z,8.68
2022-11-13T09:03:38.280Z,7.80
2022-11-13T09:06:10.245Z,8.38
2022-11-13T09:08:39.062Z,9.27
2022-11-13T09:11:07.874Z,7.70
2022-11-13T09:13:42.768Z,9.98
2022-11-13T09:16:13.250Z,7.15
2022-11-13T09:18:41.974Z,9.30
2022-11-13T09:21:12.208Z,9.27
2022-11-13T09:23:40.994Z,11.25
2022-11-13T09:26:09.726Z,9.88
2022-11-13T09:28:38.673Z,13.13
2022-11-13T09:31:08.322Z,8.65
2022-11-13T09:33:37.343Z,13.07
2022-11-13T09:36:13.281Z,14.50
2022-11-13T09:38:42.500Z,11.73
2022-11-13T09:41:23.730Z,10.27
2022-11-13T09:44:00.025Z,12.93
2022-11-13T09:46:57.388Z,17.65
2022-11-13T09:49:34.826Z,14.75
2022-11-13T09:52:14.214Z,16.35
2022-11-13T09:54:42.707Z,17.05
2022-11-13T09:57:37.921Z,15.95
2022-11-13T10:00:15.955Z,15.60
2022-11-13T10:02:57.457Z,14.93
2022-11-13T10:05:42.020Z,19.08
2022-11-13T10:08:18.788Z,15.10
2022-11-13T10:11:18.229Z,14.63
2022-11-13T10:13:48.575Z,15.05
2022-11-13T10:16:40.466Z,14.77
2022-11-13T10:20:12.453Z,14.60
2022-11-13T10:22:49.832Z,15.43
2022-11-13T10:25:21.531Z,12.27
2022-11-13T10:27:59.877Z,12.45
2022-11-13T10:30:31.054Z,16.58
2022-11-13T10:33:07.440Z,14.63
2022-11-13T10:35:48.986Z,15.48
2022-11-13T10:38:45.773Z,10.80
2022-11-13T10:41:17.340Z,11.77
2022-11-13T10:44:17.699Z,16.08
2022-11-13T10:46:46.462Z,12.13
2022-11-13T10:49:30.395Z,10.45
2022-11-13T10:54:33.502Z,12.63
2022-11-13T10:57:05.013Z,12.57
2022-11-13T10:59:45.707Z,16.20
2022-11-13T11:02:19.779Z,13.10
2022-11-13T11:04:48.545Z,15.68
2022-11-13T11:07:22.826Z,12.75
2022-11-13T11:09:52.828Z,12.13
2022-11-13T11:12:30.886Z,9.95
2022-11-13T11:15:00.348Z,11.60
2022-11-13T11:17:40.952Z,10.50
2022-11-13T11:20:21.349Z,9.93
2022-11-13T11:22:55.054Z,9.65
2022-11-13T11:25:50.556Z,9.32
2022-11-13T11:28:23.883Z,9.75
2022-11-13T11:30:57.332Z,13.07
2022-11-13T11:33:49.414Z,10.38
2022-11-13T11:36:32.933Z,11.82
2022-11-13T11:39:27.319Z,9.68
2022-11-13T11:42:12.251Z,14.85
2022-11-13T11:45:11.495Z,11.07
2022-11-13T11:47:40.987Z,13.85
2022-11-13T11:50:15.985Z,13.00
2022-11-13T11:52:47.861Z,13.45
2022-11-13T11:55:28.297Z,12.77
2022-11-13T11:58:23.226Z,11.05
2022-11-13T12:00:53.319Z,13.35
2022-11-13T12:03:42.148Z,15.30
2022-11-13T12:06:14.718Z,14.02
2022-11-13T12:09:36.234Z,16.42
2022-11-13T12:12:39.900Z,15.88
2022-11-13T12:15:20.062Z,12.07
2022-11-13T12:18:05.639Z,14.35
2022-11-13T12:20:46.311Z,15.07
2022-11-13T12:23:37.012Z,16.23
2022-11-13T12:26:11.581Z,18.42
2022-11-13T12:28:47.485Z,9.85
2022-11-13T12:31:53.345Z,16.75
2022-11-13T12:34:36.284Z,13.05
2022-11-13T12:37:12.156Z,14.77
2022-11-13T12:39:46.550Z,14.15
2022-11-13T12:42:29.948Z,15.27
2022-11-13T12:45:19.707Z,11.43
2022-11-13T12:47:53.517Z,13.20
2022-11-13T12:50:32.764Z,14.95
2022-11-13T12:53:11.565Z,16.10
2022-11-13T12:55:42.581Z,12.68
2022-11-13T12:58:27.604Z,11.63
2022-11-13T13:01:14.151Z,12.60
2022-11-13T13:03:42.863Z,11.85
2022-11-13T13:06:20.905Z,11.05
2022-11-13T13:09:21.534Z,11.93
2022-11-13T13:12:27.186Z,11.38
2022-11-13T13:15:08.081Z,10.25
2022-11-13T13:17:36.975Z,10.70
2022-11-13T13:20:06.994Z,11.55
2022-11-13T13:22:37.447Z,9.30
2022-11-13T13:25:24.247Z,9.18
2022-11-13T13:28:01.450Z,9.73
2022-11-13T13:30:32.946Z,11.95
2022-11-13T13:33:19.813Z,11.20
2022-11-13T13:35:59.217Z,13.10
2022-11-13T13:39:04.073Z,12.60
2022-11-13T13:41:35.889Z,12.90
2022-11-13T13:44:22.850Z,13.25
2022-11-13T13:46:52.248Z,15.43
2022-11-13T13:49:23.393Z,10.50
2022-11-13T13:51:55.015Z,11.25
2022-11-13T13:54:31.983Z,10.27
2022-11-13T13:57:01.085Z,11.43
2022-11-13T13:59:36.135Z,9.27
2022-11-13T14:02:14.381Z,10.95
2022-11-13T14:04:51.366Z,12.40
2022-11-13T14:07:23.717Z,10.00
2022-11-13T14:10:05.303Z,10.18
2022-11-13T14:12:34.192Z,14.27
2022-11-13T14:15:06.847Z,11.30
2022-11-13T14:17:36.932Z,12.00
2022-11-13T14:20:05.970Z,10.35
2022-11-13T14:22:34.855Z,11.10
2022-11-13T14:25:03.967Z,11.05
2022-11-13T14:27:33.606Z,9.85
2022-11-13T14:30:03.826Z,12.25
2022-11-13T14:32:46.715Z,11.90
2022-11-13T14:35:27.757Z,10.50
2022-11-13T14:37:57.161Z,9.85
2022-11-13T14:40:29.101Z,9.60
2022-11-13T14:43:04.872Z,8.73
2022-11-13T14:45:34.350Z,8.90
2022-11-13T14:48:06.273Z,12.07
2022-11-13T14:50:38.701Z,14.00
2022-11-13T14:53:12.410Z,10.55
2022-11-13T14:55:53.328Z,11.63
2022-11-13T14:58:30.259Z,13.15
2022-11-13T15:01:00.358Z,10.73
2022-11-13T15:03:29.703Z,8.75
2022-11-13T15:05:58.278Z,10.75
2022-11-13T15:08:27.091Z,10.43
2022-11-13T15:10:56.352Z,9.43
2022-11-13T15:13:24.784Z,9.20
2022-11-13T15:15:53.592Z,10.35
2022-11-13T15:18:22.383Z,7.53
2022-11-13T15:20:50.885Z,6.57
2022-11-13T15:23:19.760Z,8.60
2022-11-13T15:25:48.496Z,9.40
2022-11-13T15:28:17.198Z,9.07
2022-11-13T15:30:46.033Z,9.25
2022-11-13T15:33:15.850Z,10.00
2022-11-13T15:35:45.179Z,8.00
2022-11-13T15:38:14.314Z,8.07
2022-11-13T15:40:43.097Z,8.15
2022-11-13T15:43:18.795Z,7.32
2022-11-13T15:45:47.593Z,12.80
2022-11-13T15:48:17.167Z,6.97
2022-11-13T15:50:46.019Z,11.32
2022-11-13T15:53:14.468Z,5.43
2022-11-13T15:55:43.848Z,10.20
2022-11-13T15:58:17.700Z,7.95
2022-11-13T16:00:47.457Z,10.75
2022-11-13T16:03:15.539Z,18.73
2022-11-13T16:05:43.974Z,7.07
2022-11-13T16:08:17.535Z,10.82
2022-11-13T16:13:14.638Z,10.52
2022-11-13T16:15:43.625Z,6.28
2022-11-13T16:18:25.474Z,6.22
2022-11-13T16:20:53.959Z,7.97
2022-11-13T16:23:23.180Z,6.60
2022-11-13T16:25:52.093Z,8.77
2022-11-13T16:28:21.166Z,10.25
2022-11-13T16:30:51.122Z,5.93
2022-11-13T16:33:20.690Z,7.88
2022-11-13T16:35:50.437Z,7.45
2022-11-13T16:38:18.862Z,7.93
2022-11-13T16:40:47.092Z,9.95
2022-11-13T16:43:15.972Z,7.95
2022-11-13T16:45:44.393Z,7.53
2022-11-13T16:48:17.195Z,5.65
2022-11-13T16:50:45.640Z,6.30
2022-11-13T16:53:14.447Z,6.53
2022-11-13T16:55:43.249Z,6.15
2022-11-13T16:58:15.884Z,7.32
2022-11-13T17:00:44.686Z,6.70
2022-11-13T17:03:13.177Z,5.03
2022-11-13T17:05:41.931Z,5.20
2022-11-13T17:08:14.311Z,4.95
2022-11-13T17:10:43.151Z,9.27
2022-11-13T17:13:12.021Z,7.68
2022-11-13T17:15:40.627Z,5.97
2022-11-13T17:18:11.880Z,9.00
2022-11-13T17:20:40.697Z,7.10
2022-11-13T17:23:12.462Z,7.35
2022-11-13T17:25:41.261Z,6.57
2022-11-13T17:28:09.995Z,6.90
2022-11-13T17:30:38.737Z,5.75
2022-11-13T17:33:07.501Z,5.22
2022-11-13T17:35:35.936Z,8.32
2022-11-13T17:38:04.638Z,4.78
2022-11-13T17:40:33.339Z,5.50
2022-11-13T17:43:02.049Z,6.63
2022-11-13T17:45:30.759Z,6.00
2022-11-13T17:47:59.714Z,6.30
2022-11-13T17:50:29.082Z,7.03
2022-11-13T17:52:58.797Z,5.63
2022-11-13T17:55:27.431Z,4.65
2022-11-13T17:58:01.684Z,5.20
2022-11-13T18:00:30.543Z,7.13
2022-11-13T18:02:59.290Z,5.25
2022-11-13T18:05:28.491Z,4.70
2022-11-13T18:07:57.324Z,6.20
2022-11-13T18:10:26.053Z,5.80
2022-11-13T18:12:54.818Z,4.50
2022-11-13T18:15:23.528Z,5.80
2022-11-13T18:17:52.277Z,4.88
2022-11-13T18:20:21.215Z,7.57
2022-11-13T18:22:50.023Z,5.88
2022-11-13T18:25:19.587Z,5.28
2022-11-13T18:27:48.040Z,5.03
2022-11-13T18:30:16.933Z,6.00
2022-11-13T18:32:45.884Z,6.72
2022-11-13T18:35:14.683Z,5.65
2022-11-13T18:37:43.379Z,4.75
2022-11-13T18:40:12.790Z,5.50
2022-11-13T18:42:41.286Z,5.38
2022-11-13T18:45:10.421Z,7.03
2022-11-13T18:47:39.245Z,8.52
2022-11-13T18:50:08.179Z,6.85
2022-11-13T18:52:36.969Z,4.57
2022-11-13T18:55:05.896Z,4.18
2022-11-13T18:57:35.274Z,5.93
2022-11-13T19:00:04.900Z,4.53
2022-11-13T19:02:33.636Z,7.05
2022-11-13T19:05:02.081Z,4.55
2022-11-13T19:07:30.483Z,5.50
2022-11-13T19:09:58.912Z,3.97
2022-11-13T19:12:27.794Z,5.38
2022-11-13T19:14:56.476Z,3.83
2022-11-13T19:17:24.553Z,4.95
2022-11-13T19:19:53.446Z,5.47
2022-11-13T19:22:22.154Z,4.25
2022-11-13T19:24:50.923Z,4.63
2022-11-13T19:27:19.373Z,5.18
2022-11-13T19:29:48.114Z,6.45
2022-11-13T19:32:16.851Z,6.40
2022-11-13T19:34:46.709Z,6.55
2022-11-13T19:37:19.031Z,8.90
2022-11-13T19:39:49.482Z,6.17
2022-11-13T19:42:18.245Z,5.80
2022-11-13T19:44:46.980Z,6.20
2022-11-13T19:47:15.829Z,8.98
2022-11-13T19:49:44.546Z,5.20
2022-11-13T19:52:13.004Z,12.45
2022-11-13T19:54:43.434Z,7.95
2022-11-13T19:57:12.557Z,6.35
2022-11-13T19:59:41.518Z,5.82
2022-11-13T20:02:11.561Z,7.05
2022-11-13T20:04:40.268Z,5.75
2022-11-13T20:07:09.178Z,6.85
2022-11-13T20:09:38.066Z,5.20
2022-11-13T20:12:07.110Z,8.57
2022-11-13T20:14:38.554Z,5.43
2022-11-13T20:17:07.287Z,7.63
2022-11-13T20:19:36.101Z,4.78
2022-11-13T20:22:04.908Z,4.95
2022-11-13T20:24:33.733Z,3.78
2022-11-13T20:27:02.152Z,6.68
2022-11-13T20:29:30.881Z,4.50
2022-11-13T20:32:00.558Z,7.20
2022-11-13T20:34:28.710Z,3.55
2022-11-13T20:36:57.417Z,4.93
2022-11-13T20:39:26.240Z,4.20
2022-11-13T20:41:54.666Z,3.35
2022-11-13T20:44:23.415Z,6.03
2022-11-13T20:46:51.895Z,5.38
2022-11-13T20:49:20.611Z,3.58
2022-11-13T20:51:51.464Z,5.47
2022-11-13T20:54:23.147Z,2.80
2022-11-13T20:56:51.942Z,2.70
2022-11-13T20:59:20.796Z,4.03
2022-11-13T21:01:49.761Z,4.15
2022-11-13T21:04:18.315Z,4.97
2022-11-13T21:06:47.191Z,8.68
2022-11-13T21:09:16.035Z,3.42
2022-11-13T21:11:44.485Z,3.03
2022-11-13T21:14:12.963Z,3.05
2022-11-13T21:16:41.737Z,3.47
2022-11-13T21:19:11.529Z,3.00
2022-11-13T21:21:41.384Z,7.45
2022-11-13T21:24:10.327Z,3.03
2022-11-13T21:26:39.115Z,3.05
2022-11-13T21:29:07.559Z,5.25
2022-11-13T21:31:36.426Z,2.70
2022-11-13T21:34:05.118Z,3.28
2022-11-13T21:36:33.867Z,3.35
2022-11-13T21:39:02.699Z,4.05
2022-11-13T21:41:31.542Z,4.90
2022-11-13T21:44:06.052Z,3.70
2022-11-13T21:46:39.761Z,4.53
2022-11-13T21:49:13.096Z,6.55
2022-11-13T21:51:43.327Z,3.30
2022-11-13T21:54:15.456Z,3.60
2022-11-13T21:56:44.363Z,4.30
2022-11-13T21:59:14.158Z,8.60
2022-11-13T22:01:43.086Z,8.60
2022-11-13T22:04:11.948Z,4.93
2022-11-13T22:06:43.813Z,4.18
2022-11-13T22:09:23.471Z,9.25
2022-11-13T22:11:52.606Z,5.72
2022-11-13T22:14:21.511Z,5.32
2022-11-13T22:16:49.961Z,5.45
2022-11-13T22:19:26.513Z,3.80
2022-11-13T22:21:56.653Z,5.55
2022-11-13T22:24:25.468Z,4.55
2022-11-13T22:26:54.241Z,5.10
2022-11-13T22:29:23.020Z,8.45
2022-11-13T22:31:51.774Z,5.13
2022-11-13T22:34:20.548Z,4.05
2022-11-13T22:36:49.250Z,4.68
2022-11-13T22:39:18.234Z,6.82
2022-11-13T22:41:47.023Z,3.63
2022-11-13T22:44:16.016Z,6.18
2022-11-13T22:46:44.805Z,3.53
2022-11-13T22:49:13.935Z,4.95
2022-11-13T22:51:43.040Z,4.60
2022-11-13T22:54:14.505Z,5.63
2022-11-13T22:56:43.876Z,6.45
2022-11-13T22:59:13.992Z,6.32
2022-11-13T23:01:44.064Z,6.63
2022-11-13T23:04:14.928Z,5.13
2022-11-13T23:06:44.688Z,6.47
2022-11-13T23:09:13.475Z,3.78
2022-11-13T23:11:43.782Z,3.90
2022-11-13T23:14:15.284Z,4.35
2022-11-13T23:16:44.391Z,6.93
2022-11-13T23:19:13.483Z,5.97
2022-11-13T23:21:42.175Z,6.50
2022-11-13T23:24:12.843Z,3.60
2022-11-13T23:26:41.634Z,8.35
2022-11-13T23:29:10.575Z,3.75
2022-11-13T23:31:39.328Z,4.25
2022-11-13T23:34:08.174Z,4.60
2022-11-13T23:36:36.935Z,4.05
2022-11-13T23:39:06.031Z,7.47
2022-11-13T23:41:34.778Z,18.17
2022-11-13T23:44:10.512Z,7.32
2022-11-13T23:46:39.406Z,8.00
2022-11-13T23:49:08.217Z,5.70
2022-11-13T23:51:37.009Z,4.30
2022-11-13T23:54:05.936Z,4.53
2022-11-13T23:56:35.036Z,5.20
2022-11-13T23:59:03.776Z,3.95
